Time;durP1;ratioP1;P1;durP2;ratioP2;P2;SDS_P1;SDS_P2;PMS_P1;PMS_P2;Temp;Humidity;BMP_temperature;BMP_pressure;BME280_temperature;BME280_humidity;BME280_pressure;Samples;Min_cycle;Max_cycle;Signal;HPM_P1;HPM_P2
2022/06/12 00:02:18;;;;;;;;;;;;;;;;;;5065583;28;1950;-87
2022/06/12 00:04:43;;;;;;;;;;;;;;;;;;5064061;28;1240;-87
2022/06/12 00:07:08;;;;;;;;;;;;;;;;;;5074408;28;1268;-87
2022/06/12 00:09:34;;;;;;;;;;;;;;;;;;5061567;28;1211;-87
2022/06/12 00:11:59;;;;;;;;;;;;;;;;;;5050866;28;1175;-87
2022/06/12 00:14:24;;;;;;;;;;;;;;;;;;5076605;28;1207;-86
2022/06/12 00:16:54;;;;;;;;;;;;;;;;;;5072213;28;1351;-87
2022/06/12 00:19:20;;;;;;;;;;;;;;;;;;5084951;28;1257;-87
2022/06/12 00:21:45;;;;;;;;;;;;;;;;;;5083801;28;1231;-86
2022/06/12 00:24:12;;;;;;;;;;;;;;;;;;5084274;28;1963;-87
2022/06/12 00:26:40;;;;;;;;;;;;;;;;;;5086284;28;1257;-87
2022/06/12 00:29:08;;;;;;;;;;;;;;;;;;5076727;28;1116;-88
2022/06/12 00:31:35;;;;;;;;;;;;;;;;;;5086486;28;1239;-87
2022/06/12 00:34:01;;;;;;;;;;;;;;;;;;5081421;28;1297;-89
2022/06/12 00:36:27;;;;;;;;;;;;;;;;;;5083858;28;1044;-88
2022/06/12 00:38:53;;;;;;;;;;;;;;;;;;5075856;28;1159;-88
2022/06/12 00:41:19;;;;;;;;;;;;;;;;;;5076471;28;1281;-88
2022/06/12 00:43:44;;;;;;;;;;;;;;;;;;5058462;28;1894;-88
2022/06/12 00:46:31;;;;;;;;;;;;;;;;;;5076095;28;1341;-88
2022/06/12 00:48:56;;;;;;;;;;;;;;;;;;5078067;28;1226;-88
2022/06/12 00:51:21;;;;;;;;;;;;;;;;;;5078002;28;1199;-88
2022/06/12 00:53:53;;;;;;;;;;;;;;;;;;5074597;28;1196;-88
2022/06/12 00:56:30;;;;;;;;;;;;;;;;;;5080038;28;1196;-88
2022/06/12 00:58:57;;;;;;;;;;;;;;;;;;5076429;28;1237;-87
2022/06/12 01:01:29;;;;;;;;;;;;;;;;;;5088466;28;1301;-88
2022/06/12 01:06:39;;;;;;;;;;;;;;;;;;5074949;28;1204;-87
2022/06/12 01:09:08;;;;;;;;;;;;;;;;;;5083058;28;1219;-87
2022/06/12 01:11:34;;;;;;;;;;;;;;;;;;5084985;28;1389;-87
2022/06/12 01:13:59;;;;;;;;;;;;;;;;;;5080554;28;1184;-89
2022/06/12 01:16:24;;;;;;;;;;;;;;;;;;5053312;28;1376;-87
2022/06/12 01:18:53;;;;;;;;;;;;;;;;;;5087550;28;1189;-87
2022/06/12 01:21:28;;;;;;;;;;;;;;;;;;5084212;28;1171;-87
2022/06/12 01:23:54;;;;;;;;;;;;;;;;;;5097370;28;1903;-86
2022/06/12 01:26:22;;;;;;;;;;;;;;;;;;5099085;28;1174;-87
2022/06/12 01:29:00;;;;;;;;;;;;;;;;;;5100031;28;1121;-87
2022/06/12 01:31:26;;;;;;;;;;;;;;;;;;5092198;28;1089;-87
2022/06/12 01:33:57;;;;;;;;;;;;;;;;;;5087855;28;1251;-88
2022/06/12 01:36:32;;;;;;;;;;;;;;;;;;5080930;28;1235;-88
2022/06/12 01:39:09;;;;;;;;;;;;;;;;;;5082999;28;1186;-88
2022/06/12 01:41:47;;;;;;;;;;;;;;;;;;5074757;28;1282;-86
2022/06/12 01:44:37;;;;;;;;;;;;;;;;;;5075735;28;1910;-89
2022/06/12 01:47:07;;;;;;;;;;;;;;;;;;5089209;28;1277;-88
2022/06/12 01:49:39;;;;;;;;;;;;;;;;;;5074690;28;1301;-87
2022/06/12 01:52:24;;;;;;;;;;;;;;;;;;5088654;28;1302;-87
2022/06/12 01:54:58;;;;;;;;;;;;;;;;;;5077476;28;1239;-88
2022/06/12 01:57:38;;;;;;;;;;;;;;;;;;5072615;28;1284;-86
2022/06/12 02:00:03;;;;;;;;;;;;;;;;;;5077069;28;1136;-87
2022/06/12 02:02:37;;;;;;;;;;;;;;;;;;5084882;28;1943;-88
2022/06/12 02:05:13;;;;;;;;;;;;;;;;;;5076803;28;1357;-89
2022/06/12 02:07:44;;;;;;;;;;;;;;;;;;5078332;28;1293;-86
2022/06/12 02:10:19;;;;;;;;;;;;;;;;;;5070510;28;1145;-86
2022/06/12 02:15:49;;;;;;;;;;;;;;;;;;5072789;28;1053;-85
2022/06/12 02:18:20;;;;;;;;;;;;;;;;;;5067998;28;1214;-89
2022/06/12 02:20:52;;;;;;;;;;;;;;;;;;5082322;28;1299;-87
2022/06/12 02:23:21;;;;;;;;;;;;;;;;;;5078576;28;1952;-87
2022/06/12 02:25:48;;;;;;;;;;;;;;;;;;5080068;28;1317;-88
2022/06/12 02:28:26;;;;;;;;;;;;;;;;;;5079399;28;1302;-86
2022/06/12 02:30:55;;;;;;;;;;;;;;;;;;5078115;28;1393;-88
2022/06/12 02:33:24;;;;;;;;;;;;;;;;;;5074314;28;1246;-85
2022/06/12 02:35:52;;;;;;;;;;;;;;;;;;5068168;28;1141;-84
2022/06/12 02:38:20;;;;;;;;;;;;;;;;;;5072401;28;1353;-83
2022/06/12 02:40:50;;;;;;;;;;;;;;;;;;5078458;28;1202;-84
2022/06/12 02:43:19;;;;;;;;;;;;;;;;;;5063067;28;1910;-85
2022/06/12 02:45:48;;;;;;;;;;;;;;;;;;5079065;28;1306;-84
2022/06/12 02:48:13;;;;;;;;;;;;;;;;;;5077319;28;1264;-88
2022/06/12 02:50:41;;;;;;;;;;;;;;;;;;5084030;28;1117;-87
2022/06/12 02:53:25;;;;;;;;;;;;;;;;;;5071318;28;1211;-88
2022/06/12 02:56:04;;;;;;;;;;;;;;;;;;5075265;28;1292;-84
2022/06/12 02:58:39;;;;;;;;;;;;;;;;;;5069655;28;1313;-87
2022/06/12 03:01:11;;;;;;;;;;;;;;;;;;5072807;28;1269;-85
2022/06/12 03:03:36;;;;;;;;;;;;;;;;;;5079280;28;1895;-87
2022/06/12 03:06:05;;;;;;;;;;;;;;;;;;5077053;28;1191;-86
2022/06/12 03:08:34;;;;;;;;;;;;;;;;;;5074917;28;1352;-88
2022/06/12 03:11:03;;;;;;;;;;;;;;;;;;5086449;28;1316;-84
2022/06/12 03:13:31;;;;;;;;;;;;;;;;;;5078979;28;1141;-86
2022/06/12 03:15:58;;;;;;;;;;;;;;;;;;5078493;28;1088;-86
2022/06/12 03:18:30;;;;;;;;;;;;;;;;;;5082391;28;1234;-85
2022/06/12 03:21:08;;;;;;;;;;;;;;;;;;5075264;28;1123;-86
2022/06/12 03:23:52;;;;;;;;;;;;;;;;;;5071621;28;1918;-86
2022/06/12 03:26:23;;;;;;;;;;;;;;;;;;5068219;28;1293;-86
2022/06/12 03:29:12;;;;;;;;;;;;;;;;;;5076966;28;1368;-86
2022/06/12 03:31:48;;;;;;;;;;;;;;;;;;5061699;28;1342;-86
2022/06/12 03:34:24;;;;;;;;;;;;;;;;;;5082746;28;1241;-85
2022/06/12 03:36:53;;;;;;;;;;;;;;;;;;5079149;28;1220;-87
2022/06/12 03:39:23;;;;;;;;;;;;;;;;;;5069621;28;1243;-85
2022/06/12 03:41:54;;;;;;;;;;;;;;;;;;5077682;28;1117;-86
2022/06/12 03:44:43;;;;;;;;;;;;;;;;;;5073556;28;1943;-86
2022/06/12 03:47:24;;;;;;;;;;;;;;;;;;5080183;28;1206;-87
2022/06/12 03:49:57;;;;;;;;;;;;;;;;;;5074751;28;1207;-86
2022/06/12 03:52:26;;;;;;;;;;;;;;;;;;5069020;28;1175;-86
2022/06/12 03:55:03;;;;;;;;;;;;;;;;;;5077902;28;1277;-86
2022/06/12 03:57:52;;;;;;;;;;;;;;;;;;5067819;28;1203;-86
2022/06/12 04:00:24;;;;;;;;;;;;;;;;;;5082715;28;1148;-86
2022/06/12 04:02:55;;;;;;;;;;;;;;;;;;5071843;28;1897;-86
2022/06/12 04:05:23;;;;;;;;;;;;;;;;;;5078691;28;1368;-86
2022/06/12 04:07:50;;;;;;;;;;;;;;;;;;5074236;28;1231;-86
2022/06/12 04:10:21;;;;;;;;;;;;;;;;;;5076163;28;1250;-86
2022/06/12 04:12:47;;;;;;;;;;;;;;;;;;5077569;28;1163;-86
2022/06/12 04:15:15;;;;;;;;;;;;;;;;;;5079261;28;1258;-86
2022/06/12 04:17:41;;;;;;;;;;;;;;;;;;5079506;28;1121;-87
2022/06/12 04:20:13;;;;;;;;;;;;;;;;;;5079766;28;1170;-86
2022/06/12 04:22:46;;;;;;;;;;;;;;;;;;5076906;28;1922;-85
2022/06/12 04:25:30;;;;;;;;;;;;;;;;;;5069024;28;1158;-86
2022/06/12 04:27:55;;;;;;;;;;;;;;;;;;5074627;28;1266;-88
2022/06/12 04:30:29;;;;;;;;;;;;;;;;;;5084708;28;1262;-87
2022/06/12 04:33:09;;;;;;;;;;;;;;;;;;5080476;28;1301;-87
2022/06/12 04:35:39;;;;;;;;;;;;;;;;;;5077599;28;1097;-86
2022/06/12 04:38:04;;;;;;;;;;;;;;;;;;5088659;28;1166;-87
2022/06/12 04:40:30;;;;;;;;;;;;;;;;;;5061799;28;1194;-87
2022/06/12 04:42:55;;;;;;;;;;;;;;;;;;5066104;28;1902;-85
2022/06/12 04:45:20;;;;;;;;;;;;;;;;;;5060729;28;1088;-87
2022/06/12 04:47:45;;;;;;;;;;;;;;;;;;5058777;28;1277;-86
2022/06/12 04:50:16;;;;;;;;;;;;;;;;;;5068085;28;1154;-87
2022/06/12 04:52:41;;;;;;;;;;;;;;;;;;5058331;28;1164;-86
2022/06/12 04:55:07;;;;;;;;;;;;;;;;;;5070147;28;1343;-87
2022/06/12 04:57:32;;;;;;;;;;;;;;;;;;5081006;28;1214;-86
2022/06/12 04:59:58;;;;;;;;;;;;;;;;;;5079350;28;1289;-87
2022/06/12 05:02:24;;;;;;;;;;;;;;;;;;5082910;28;1925;-87
2022/06/12 05:04:49;;;;;;;;;;;;;;;;;;5066374;28;1195;-87
2022/06/12 05:07:15;;;;;;;;;;;;;;;;;;5064994;28;1323;-85
2022/06/12 05:09:42;;;;;;;;;;;;;;;;;;5063337;28;1343;-87
2022/06/12 05:12:08;;;;;;;;;;;;;;;;;;5067021;28;1292;-87
2022/06/12 05:14:34;;;;;;;;;;;;;;;;;;5074904;28;1288;-86
2022/06/12 05:17:01;;;;;;;;;;;;;;;;;;5081727;28;1350;-87
2022/06/12 05:19:29;;;;;;;;;;;;;;;;;;5075882;28;1220;-87
2022/06/12 05:21:55;;;;;;;;;;;;;;;;;;5077258;28;1333;-86
2022/06/12 05:24:21;;;;;;;;;;;;;;;;;;5076167;28;1929;-87
2022/06/12 05:26:48;;;;;;;;;;;;;;;;;;5078687;28;1270;-86
2022/06/12 05:29:17;;;;;;;;;;;;;;;;;;5071804;28;1340;-86
2022/06/12 05:31:43;;;;;;;;;;;;;;;;;;5072615;28;1159;-86
2022/06/12 05:34:08;;;;;;;;;;;;;;;;;;5082121;28;1293;-86
2022/06/12 05:36:34;;;;;;;;;;;;;;;;;;5067325;28;1217;-86
2022/06/12 05:38:59;;;;;;;;;;;;;;;;;;5063060;28;1277;-86
2022/06/12 05:41:24;;;;;;;;;;;;;;;;;;5080910;28;1211;-87
2022/06/12 05:43:49;;;;;;;;;;;;;;;;;;5051150;28;1910;-87
2022/06/12 05:46:17;;;;;;;;;;;;;;;;;;5076898;28;1183;-87
2022/06/12 05:48:43;;;;;;;;;;;;;;;;;;5068540;28;1291;-86
2022/06/12 05:51:11;;;;;;;;;;;;;;;;;;5058141;28;1179;-86
2022/06/12 05:53:36;;;;;;;;;;;;;;;;;;5079679;28;1170;-85
2022/06/12 05:56:05;;;;;;;;;;;;;;;;;;5076701;28;1249;-86
2022/06/12 05:58:30;;;;;;;;;;;;;;;;;;5074728;28;1332;-85
2022/06/12 06:00:56;;;;;;;;;;;;;;;;;;5063831;28;1259;-87
2022/06/12 06:03:21;;;;;;;;;;;;;;;;;;5073806;28;1910;-87
2022/06/12 06:05:47;;;;;;;;;;;;;;;;;;5080399;28;1153;-87
2022/06/12 06:08:13;;;;;;;;;;;;;;;;;;5069880;28;1320;-87
2022/06/12 06:10:38;;;;;;;;;;;;;;;;;;5059135;28;1200;-88
2022/06/12 06:13:04;;;;;;;;;;;;;;;;;;5068951;28;1174;-86
2022/06/12 06:15:29;;;;;;;;;;;;;;;;;;5068627;28;1069;-87
2022/06/12 06:17:54;;;;;;;;;;;;;;;;;;5062242;28;1174;-87
2022/06/12 06:20:24;;;;;;;;;;;;;;;;;;5076995;28;1215;-88
2022/06/12 06:22:50;;;;;;;;;;;;;;;;;;5076654;28;1934;-86
2022/06/12 06:25:16;;;;;;;;;;;;;;;;;;5074851;28;1155;-86
2022/06/12 06:27:41;;;;;;;;;;;;;;;;;;5078159;28;1199;-84
2022/06/12 06:30:07;;;;;;;;;;;;;;;;;;5069123;28;1324;-87
2022/06/12 06:32:33;;;;;;;;;;;;;;;;;;5066348;28;1207;-86
2022/06/12 06:34:58;;;;;;;;;;;;;;;;;;5054173;28;1317;-86
2022/06/12 06:37:25;;;;;;;;;;;;;;;;;;5078198;28;1297;-84
2022/06/12 06:39:54;;;;;;;;;;;;;;;;;;5052732;28;1208;-81
2022/06/12 06:42:20;;;;;;;;;;;;;;;;;;5065803;28;1320;-85
2022/06/12 06:47:31;;;;;;;;;;;;;;;;;;5066245;28;1055;-82
2022/06/12 06:49:56;;;;;;;;;;;;;;;;;;5071096;28;1230;-82
2022/06/12 06:52:21;;;;;;;;;;;;;;;;;;5080379;28;1284;-82
2022/06/12 06:54:47;;;;;;;;;;;;;;;;;;5053438;28;1234;-81
2022/06/12 06:57:12;;;;;;;;;;;;;;;;;;5053469;28;1183;-82
2022/06/12 06:59:38;;;;;;;;;;;;;;;;;;5080728;28;1197;-81
2022/06/12 07:02:03;;;;;;;;;;;;;;;;;;5078182;28;1297;-84
2022/06/12 07:04:30;;;;;;;;;;;;;;;;;;5077314;28;1894;-82
2022/06/12 07:06:56;;;;;;;;;;;;;;;;;;5056031;28;1236;-82
2022/06/12 07:09:21;;;;;;;;;;;;;;;;;;5061957;28;1151;-86
2022/06/12 07:11:46;;;;;;;;;;;;;;;;;;5069666;28;1311;-83
2022/06/12 07:14:11;;;;;;;;;;;;;;;;;;5079302;28;1190;-83
2022/06/12 07:16:38;;;;;;;;;;;;;;;;;;5064616;28;1350;-82
2022/06/12 07:19:04;;;;;;;;;;;;;;;;;;5080612;28;1222;-82
2022/06/12 07:21:30;;;;;;;;;;;;;;;;;;5078082;28;1289;-82
2022/06/12 07:23:55;;;;;;;;;;;;;;;;;;5055391;28;1914;-83
2022/06/12 07:26:23;;;;;;;;;;;;;;;;;;5056917;28;1249;-82
2022/06/12 07:28:50;;;;;;;;;;;;;;;;;;5065128;28;1305;-83
2022/06/12 07:31:15;;;;;;;;;;;;;;;;;;5085449;28;1206;-83
2022/06/12 07:33:41;;;;;;;;;;;;;;;;;;5078880;28;1194;-82
2022/06/12 07:36:08;;;;;;;;;;;;;;;;;;5062444;28;1241;-83
2022/06/12 07:38:35;;;;;;;;;;;;;;;;;;5079269;28;1153;-83
2022/06/12 07:41:01;;;;;;;;;;;;;;;;;;5082558;28;1171;-83
2022/06/12 07:43:34;;;;;;;;;;;;;;;;;;5076979;28;1955;-82
2022/06/12 07:45:59;;;;;;;;;;;;;;;;;;5072446;28;1137;-82
2022/06/12 07:48:27;;;;;;;;;;;;;;;;;;5078807;28;1168;-83
2022/06/12 07:50:54;;;;;;;;;;;;;;;;;;5063834;28;1305;-86
2022/06/12 07:53:21;;;;;;;;;;;;;;;;;;5081259;28;1205;-84
2022/06/12 07:55:48;;;;;;;;;;;;;;;;;;5070626;28;1298;-84
2022/06/12 07:58:14;;;;;;;;;;;;;;;;;;5072664;28;1229;-83
2022/06/12 08:00:40;;;;;;;;;;;;;;;;;;5083873;28;1076;-84
2022/06/12 08:03:06;;;;;;;;;;;;;;;;;;5072504;28;1894;-83
2022/06/12 08:05:35;;;;;;;;;;;;;;;;;;5064779;28;1302;-82
2022/06/12 08:08:00;;;;;;;;;;;;;;;;;;5074576;28;1364;-83
2022/06/12 08:10:26;;;;;;;;;;;;;;;;;;5074458;28;1388;-83
2022/06/12 08:12:52;;;;;;;;;;;;;;;;;;5084809;28;1328;-84
2022/06/12 08:15:20;;;;;;;;;;;;;;;;;;5067842;28;1238;-89
2022/06/12 08:17:45;;;;;;;;;;;;;;;;;;5084504;28;1161;-87
2022/06/12 08:20:30;;;;;;;;;;;;;;;;;;5073017;28;1200;-84
2022/06/12 08:22:55;;;;;;;;;;;;;;;;;;5074998;28;1941;-84
2022/06/12 08:25:21;;;;;;;;;;;;;;;;;;5081540;28;1074;-85
2022/06/12 08:27:46;;;;;;;;;;;;;;;;;;5067329;28;1227;-84
2022/06/12 08:30:12;;;;;;;;;;;;;;;;;;5084644;28;1271;-84
2022/06/12 08:32:38;;;;;;;;;;;;;;;;;;5075592;28;1285;-85
2022/06/12 08:35:09;;;;;;;;;;;;;;;;;;5079844;28;1144;-84
2022/06/12 08:37:37;;;;;;;;;;;;;;;;;;5072696;28;1166;-84
2022/06/12 08:40:08;;;;;;;;;;;;;;;;;;5073995;28;1192;-85
2022/06/12 08:42:44;;;;;;;;;;;;;;;;;;5076415;28;1918;-86
2022/06/12 08:45:17;;;;;;;;;;;;;;;;;;5067025;28;1125;-87
2022/06/12 08:47:50;;;;;;;;;;;;;;;;;;5062901;28;1144;-87
2022/06/12 08:50:15;;;;;;;;;;;;;;;;;;5070862;28;1304;-86
2022/06/12 08:53:10;;;;;;;;;;;;;;;;;;5078362;28;1253;-85
2022/06/12 08:55:41;;;;;;;;;;;;;;;;;;5068113;28;1267;-84
2022/06/12 08:58:18;;;;;;;;;;;;;;;;;;5081481;28;1283;-84
2022/06/12 09:00:44;;;;;;;;;;;;;;;;;;5085676;28;1124;-83
2022/06/12 09:03:15;;;;;;;;;;;;;;;;;;5073536;28;1886;-84
2022/06/12 09:05:43;;;;;;;;;;;;;;;;;;5077541;28;1450;-82
2022/06/12 09:08:13;;;;;;;;;;;;;;;;;;5082031;28;1425;-86
2022/06/12 09:10:41;;;;;;;;;;;;;;;;;;5082052;28;1341;-83
2022/06/12 09:13:26;;;;;;;;;;;;;;;;;;5066582;28;1195;-84
2022/06/12 09:16:18;;;;;;;;;;;;;;;;;;5088022;28;1344;-83
2022/06/12 09:19:03;;;;;;;;;;;;;;;;;;5080092;28;1108;-84
2022/06/12 09:21:47;;;;;;;;;;;;;;;;;;5070941;28;914;-84
2022/06/12 09:24:21;;;;;;;;;;;;;;;;;;5067131;28;1976;-83
2022/06/12 09:26:54;;;;;;;;;;;;;;;;;;5067603;28;893;-84
2022/06/12 09:29:40;;;;;;;;;;;;;;;;;;5067621;28;894;-85
2022/06/12 09:32:13;;;;;;;;;;;;;;;;;;5066459;28;1214;-82
2022/06/12 09:34:51;;;;;;;;;;;;;;;;;;5067442;28;1364;-84
2022/06/12 09:40:45;;;;;;;;;;;;;;;;;;5067955;28;664;-83
2022/06/12 09:43:16;;;;;;;;;;;;;;;;;;5063723;28;1921;-82
2022/06/12 09:46:01;;;;;;;;;;;;;;;;;;5064788;28;1296;-83
2022/06/12 09:48:32;;;;;;;;;;;;;;;;;;5059945;28;1328;-80
2022/06/12 09:51:11;;;;;;;;;;;;;;;;;;5071666;28;1260;-83
2022/06/12 09:53:45;;;;;;;;;;;;;;;;;;5072548;28;1443;-81
2022/06/12 09:56:14;;;;;;;;;;;;;;;;;;5065847;28;1234;-81
2022/06/12 09:58:47;;;;;;;;;;;;;;;;;;5060821;28;1322;-80
2022/06/12 10:01:22;;;;;;;;;;;;;;;;;;5078828;28;1201;-82
2022/06/12 10:03:59;;;;;;;;;;;;;;;;;;5068071;28;1870;-82
2022/06/12 10:06:33;;;;;;;;;;;;;;;;;;5069480;28;1270;-83
2022/06/12 10:09:06;;;;;;;;;;;;;;;;;;5060895;28;1289;-82
2022/06/12 10:11:34;;;;;;;;;;;;;;;;;;5073489;28;1204;-82
2022/06/12 10:14:08;;;;;;;;;;;;;;;;;;5081880;28;1207;-81
2022/06/12 10:16:39;;;;;;;;;;;;;;;;;;5066007;28;1179;-82
2022/06/12 10:19:15;;;;;;;;;;;;;;;;;;5068319;28;1160;-80
2022/06/12 10:21:44;;;;;;;;;;;;;;;;;;5071145;28;1396;-83
2022/06/12 10:24:10;;;;;;;;;;;;;;;;;;5081740;28;1913;-81
2022/06/12 10:26:36;;;;;;;;;;;;;;;;;;5069860;28;1443;-82
2022/06/12 10:29:04;;;;;;;;;;;;;;;;;;5057206;28;1433;-80
2022/06/12 10:31:33;;;;;;;;;;;;;;;;;;5083120;28;1144;-78
2022/06/12 10:34:18;;;;;;;;;;;;;;;;;;5083382;28;1220;-78
2022/06/12 10:36:44;;;;;;;;;;;;;;;;;;5085250;28;1230;-79
2022/06/12 10:39:15;;;;;;;;;;;;;;;;;;5064894;28;1116;-80
2022/06/12 10:41:47;;;;;;;;;;;;;;;;;;5063852;28;1194;-82
2022/06/12 10:44:31;;;;;;;;;;;;;;;;;;5063457;28;1948;-81
2022/06/12 10:47:07;;;;;;;;;;;;;;;;;;5059867;28;1229;-83
2022/06/12 10:49:32;;;;;;;;;;;;;;;;;;5064982;28;1257;-85
2022/06/12 10:52:05;;;;;;;;;;;;;;;;;;5082390;28;1322;-84
2022/06/12 10:54:31;;;;;;;;;;;;;;;;;;5074076;28;1093;-83
2022/06/12 10:57:07;;;;;;;;;;;;;;;;;;5075749;28;1212;-84
2022/06/12 10:59:34;;;;;;;;;;;;;;;;;;5063851;28;1306;-81
2022/06/12 11:02:18;;;;;;;;;;;;;;;;;;5075981;28;1194;-84
2022/06/12 11:04:44;;;;;;;;;;;;;;;;;;5070025;28;1886;-82
2022/06/12 11:07:26;;;;;;;;;;;;;;;;;;5068957;28;1287;-88
2022/06/12 11:09:51;;;;;;;;;;;;;;;;;;5075324;28;1272;-83
2022/06/12 11:12:16;;;;;;;;;;;;;;;;;;5079729;28;1199;-85
2022/06/12 11:14:41;;;;;;;;;;;;;;;;;;5083257;28;1332;-83
2022/06/12 11:17:36;;;;;;;;;;;;;;;;;;5083038;28;1145;-81
2022/06/12 11:20:05;;;;;;;;;;;;;;;;;;5084985;28;1143;-82
2022/06/12 11:22:40;;;;;;;;;;;;;;;;;;5085423;28;1201;-83
2022/06/12 11:25:13;;;;;;;;;;;;;;;;;;5079255;28;1167;-83
2022/06/12 11:27:45;;;;;;;;;;;;;;;;;;5069970;28;1242;-80
2022/06/12 11:30:30;;;;;;;;;;;;;;;;;;5086716;28;1290;-78
2022/06/12 11:33:05;;;;;;;;;;;;;;;;;;5085693;28;1449;-79
2022/06/12 11:35:30;;;;;;;;;;;;;;;;;;5088257;28;1173;-77
2022/06/12 11:38:14;;;;;;;;;;;;;;;;;;5085220;28;1200;-77
2022/06/12 11:40:46;;;;;;;;;;;;;;;;;;5085036;28;1187;-76
2022/06/12 11:43:11;;;;;;;;;;;;;;;;;;5069207;28;1961;-78
2022/06/12 11:45:42;;;;;;;;;;;;;;;;;;5081145;28;1409;-78
2022/06/12 11:48:22;;;;;;;;;;;;;;;;;;5064586;28;1286;-81
2022/06/12 11:50:47;;;;;;;;;;;;;;;;;;5072507;28;1219;-79
2022/06/12 11:53:31;;;;;;;;;;;;;;;;;;5075392;28;1140;-81
2022/06/12 11:56:00;;;;;;;;;;;;;;;;;;5080371;28;1278;-80
2022/06/12 11:58:41;;;;;;;;;;;;;;;;;;5064526;28;1194;-81
2022/06/12 12:01:31;;;;;;;;;;;;;;;;;;5066265;28;1190;-81
2022/06/12 12:04:12;;;;;;;;;;;;;;;;;;5064016;28;1905;-82
2022/06/12 12:06:43;;;;;;;;;;;;;;;;;;5065927;28;1267;-81
2022/06/12 12:09:21;;;;;;;;;;;;;;;;;;5065384;28;912;-80
2022/06/12 12:12:00;;;;;;;;;;;;;;;;;;5069625;28;902;-82
2022/06/12 12:14:30;;;;;;;;;;;;;;;;;;5066689;28;1251;-80
2022/06/12 12:16:56;;;;;;;;;;;;;;;;;;5069881;28;1246;-80
2022/06/12 12:19:21;;;;;;;;;;;;;;;;;;5065063;28;1230;-81
2022/06/12 12:22:01;;;;;;;;;;;;;;;;;;5066556;28;1198;-81
2022/06/12 12:24:29;;;;;;;;;;;;;;;;;;5070363;28;1910;-80
2022/06/12 12:26:57;;;;;;;;;;;;;;;;;;5074968;28;1231;-78
2022/06/12 12:29:25;;;;;;;;;;;;;;;;;;5075617;28;1375;-80
2022/06/12 12:31:51;;;;;;;;;;;;;;;;;;5082027;28;1231;-80
2022/06/12 12:34:19;;;;;;;;;;;;;;;;;;5069937;28;1182;-79
2022/06/12 12:42:28;;;;;;;;;;;;;;;;;;5066130;28;1227;-75
2022/06/12 12:44:57;;;;;;;;;;;;;;;;;;5080960;28;1930;-75
2022/06/12 12:47:25;;;;;;;;;;;;;;;;;;5083958;28;1236;-76
2022/06/12 12:50:03;;;;;;;;;;;;;;;;;;5087233;28;1150;-75
2022/06/12 12:52:37;;;;;;;;;;;;;;;;;;5088736;28;1160;-75
2022/06/12 12:55:04;;;;;;;;;;;;;;;;;;5084199;28;1124;-74
2022/06/12 12:57:34;;;;;;;;;;;;;;;;;;5084160;28;1364;-77
2022/06/12 13:00:02;;;;;;;;;;;;;;;;;;5085360;28;1510;-75
2022/06/12 13:02:34;;;;;;;;;;;;;;;;;;5084162;28;1332;-76
2022/06/12 13:05:28;;;;;;;;;;;;;;;;;;5086806;28;1898;-76
2022/06/12 13:08:17;;;;;;;;;;;;;;;;;;5074928;28;1219;-73
2022/06/12 13:10:48;;;;;;;;;;;;;;;;;;5063054;28;1235;-74
2022/06/12 13:13:17;;;;;;;;;;;;;;;;;;5082634;28;1280;-77
2022/06/12 13:15:49;;;;;;;;;;;;;;;;;;5085970;28;1227;-77
2022/06/12 13:18:34;;;;;;;;;;;;;;;;;;5066814;28;1399;-74
2022/06/12 13:21:17;;;;;;;;;;;;;;;;;;5065118;28;1109;-74
2022/06/12 13:24:09;;;;;;;;;;;;;;;;;;5061153;28;1906;-74
2022/06/12 13:26:36;;;;;;;;;;;;;;;;;;5082391;28;1513;-75
2022/06/12 13:29:06;;;;;;;;;;;;;;;;;;5082216;28;1058;-75
2022/06/12 13:31:35;;;;;;;;;;;;;;;;;;5085545;28;1268;-75
2022/06/12 13:34:05;;;;;;;;;;;;;;;;;;5082312;28;1378;-80
2022/06/12 13:36:39;;;;;;;;;;;;;;;;;;5085067;28;1316;-82
2022/06/12 13:39:17;;;;;;;;;;;;;;;;;;5076519;28;1243;-82
2022/06/12 13:41:44;;;;;;;;;;;;;;;;;;5066331;28;1441;-83
2022/06/12 13:44:21;;;;;;;;;;;;;;;;;;5063629;28;1882;-83
2022/06/12 13:46:47;;;;;;;;;;;;;;;;;;5066594;28;1226;-83
2022/06/12 13:49:51;;;;;;;;;;;;;;;;;;5049810;28;1195;-81
2022/06/12 13:52:16;;;;;;;;;;;;;;;;;;5031340;28;1274;-82
2022/06/12 13:54:43;;;;;;;;;;;;;;;;;;5029453;28;1226;-81
2022/06/12 13:57:14;;;;;;;;;;;;;;;;;;5055384;28;1216;-81
2022/06/12 13:59:43;;;;;;;;;;;;;;;;;;5067424;28;1495;-81
2022/06/12 14:02:15;;;;;;;;;;;;;;;;;;5082505;28;1275;-82
2022/06/12 14:04:48;;;;;;;;;;;;;;;;;;5064964;28;1959;-82
2022/06/12 14:07:13;;;;;;;;;;;;;;;;;;5064910;28;1329;-81
2022/06/12 14:09:38;;;;;;;;;;;;;;;;;;5085218;28;1303;-81
2022/06/12 14:12:05;;;;;;;;;;;;;;;;;;5069436;28;1202;-81
2022/06/12 14:14:38;;;;;;;;;;;;;;;;;;5075439;28;1189;-83
2022/06/12 14:17:15;;;;;;;;;;;;;;;;;;5079804;28;1377;-82
2022/06/12 14:19:40;;;;;;;;;;;;;;;;;;5083219;28;1292;-81
2022/06/12 14:22:12;;;;;;;;;;;;;;;;;;5086847;28;917;-80
2022/06/12 14:24:39;;;;;;;;;;;;;;;;;;5084122;28;1965;-82
2022/06/12 14:27:20;;;;;;;;;;;;;;;;;;5086333;28;1337;-83
2022/06/12 14:29:45;;;;;;;;;;;;;;;;;;5084630;28;1111;-83
2022/06/12 14:32:11;;;;;;;;;;;;;;;;;;5086543;28;822;-82
2022/06/12 14:34:37;;;;;;;;;;;;;;;;;;5085497;28;806;-83
2022/06/12 14:37:03;;;;;;;;;;;;;;;;;;5086378;28;1162;-83
2022/06/12 14:39:34;;;;;;;;;;;;;;;;;;5084235;28;1204;-81
2022/06/12 14:42:06;;;;;;;;;;;;;;;;;;5069399;28;1297;-82
2022/06/12 14:44:32;;;;;;;;;;;;;;;;;;5082456;28;1886;-83
2022/06/12 14:47:06;;;;;;;;;;;;;;;;;;5072202;28;1144;-88
2022/06/12 14:49:31;;;;;;;;;;;;;;;;;;5066753;28;1300;-89
2022/06/12 14:51:56;;;;;;;;;;;;;;;;;;5067784;28;1205;-85
2022/06/12 14:54:22;;;;;;;;;;;;;;;;;;5046985;28;1195;-82
2022/06/12 14:56:49;;;;;;;;;;;;;;;;;;5066669;28;1285;-82
2022/06/12 14:59:16;;;;;;;;;;;;;;;;;;5062783;28;1348;-83
2022/06/12 15:01:41;;;;;;;;;;;;;;;;;;5068656;28;909;-83
2022/06/12 15:04:09;;;;;;;;;;;;;;;;;;5067917;28;1886;-81
2022/06/12 15:06:36;;;;;;;;;;;;;;;;;;5070467;28;1217;-87
2022/06/12 15:09:03;;;;;;;;;;;;;;;;;;5052508;28;1369;-86
2022/06/12 15:11:29;;;;;;;;;;;;;;;;;;5069911;28;1150;-83
2022/06/12 15:13:55;;;;;;;;;;;;;;;;;;5074481;28;1267;-77
2022/06/12 15:16:20;;;;;;;;;;;;;;;;;;5085602;28;1147;-83
2022/06/12 15:18:46;;;;;;;;;;;;;;;;;;5066182;28;1380;-84
2022/06/12 15:21:31;;;;;;;;;;;;;;;;;;5083373;28;1193;-83
2022/06/12 15:23:56;;;;;;;;;;;;;;;;;;5082938;28;1914;-84
2022/06/12 15:31:52;;;;;;;;;;;;;;;;;;5093069;28;672;-82
2022/06/12 15:34:17;;;;;;;;;;;;;;;;;;5072510;28;1190;-84
2022/06/12 15:36:43;;;;;;;;;;;;;;;;;;5090934;28;1459;-84
2022/06/12 15:39:08;;;;;;;;;;;;;;;;;;5089204;28;889;-83
2022/06/12 15:41:35;;;;;;;;;;;;;;;;;;5090105;28;1340;-84
2022/06/12 15:44:01;;;;;;;;;;;;;;;;;;5086861;28;1947;-85
2022/06/12 15:46:27;;;;;;;;;;;;;;;;;;5091244;28;809;-83
2022/06/12 15:48:54;;;;;;;;;;;;;;;;;;5085730;28;1230;-84
2022/06/12 15:51:20;;;;;;;;;;;;;;;;;;5088808;28;778;-84
2022/06/12 15:53:46;;;;;;;;;;;;;;;;;;5068353;28;1218;-85
2022/06/12 15:56:12;;;;;;;;;;;;;;;;;;5088225;28;1163;-83
2022/06/12 15:58:38;;;;;;;;;;;;;;;;;;5076972;28;1161;-83
2022/06/12 16:01:04;;;;;;;;;;;;;;;;;;5081453;28;1180;-86
2022/06/12 16:03:29;;;;;;;;;;;;;;;;;;5068662;28;1945;-86
2022/06/12 16:05:55;;;;;;;;;;;;;;;;;;5070184;28;1178;-86
2022/06/12 16:08:20;;;;;;;;;;;;;;;;;;5079953;28;1235;-85
2022/06/12 16:10:45;;;;;;;;;;;;;;;;;;5074834;28;1256;-86
2022/06/12 16:13:10;;;;;;;;;;;;;;;;;;5083985;28;1121;-85
2022/06/12 16:15:36;;;;;;;;;;;;;;;;;;5084832;28;1182;-85
2022/06/12 16:18:01;;;;;;;;;;;;;;;;;;5061055;28;1269;-84
2022/06/12 16:20:26;;;;;;;;;;;;;;;;;;5067901;28;1198;-84
2022/06/12 16:22:52;;;;;;;;;;;;;;;;;;5088345;28;1967;-84
2022/06/12 16:25:20;;;;;;;;;;;;;;;;;;5069637;28;1320;-83
2022/06/12 16:27:46;;;;;;;;;;;;;;;;;;5088226;28;1135;-83
2022/06/12 16:30:20;;;;;;;;;;;;;;;;;;5088303;28;1503;-83
2022/06/12 16:32:46;;;;;;;;;;;;;;;;;;5089869;28;1127;-84
2022/06/12 16:35:13;;;;;;;;;;;;;;;;;;5086395;28;1211;-85
2022/06/12 16:37:38;;;;;;;;;;;;;;;;;;5087115;28;1301;-82
2022/06/12 16:40:04;;;;;;;;;;;;;;;;;;5088509;28;964;-85
2022/06/12 16:42:30;;;;;;;;;;;;;;;;;;5075326;28;1318;-84
2022/06/12 16:44:55;;;;;;;;;;;;;;;;;;5088163;28;1890;-84
2022/06/12 16:47:24;;;;;;;;;;;;;;;;;;5088094;28;1170;-84
2022/06/12 16:49:49;;;;;;;;;;;;;;;;;;5085483;28;913;-86
2022/06/12 16:52:15;;;;;;;;;;;;;;;;;;5072789;28;1309;-84
2022/06/12 16:54:40;;;;;;;;;;;;;;;;;;5075891;28;1325;-83
2022/06/12 16:57:06;;;;;;;;;;;;;;;;;;5069202;28;1183;-84
2022/06/12 16:59:32;;;;;;;;;;;;;;;;;;5065070;28;1170;-85
2022/06/12 17:01:57;;;;;;;;;;;;;;;;;;5068328;28;1096;-84
2022/06/12 17:04:23;;;;;;;;;;;;;;;;;;5048146;28;1894;-83
2022/06/12 17:06:49;;;;;;;;;;;;;;;;;;5069163;28;1273;-84
2022/06/12 17:09:15;;;;;;;;;;;;;;;;;;5047592;28;1175;-83
2022/06/12 17:11:40;;;;;;;;;;;;;;;;;;5067552;28;1190;-84
2022/06/12 17:14:06;;;;;;;;;;;;;;;;;;5050897;28;1267;-85
2022/06/12 17:16:31;;;;;;;;;;;;;;;;;;5069573;28;850;-84
2022/06/12 17:21:41;;;;;;;;;;;;;;;;;;5066596;28;626;-84
2022/06/12 17:24:09;;;;;;;;;;;;;;;;;;5049172;28;1906;-83
2022/06/12 17:26:34;;;;;;;;;;;;;;;;;;5074189;28;1395;-84
2022/06/12 17:29:00;;;;;;;;;;;;;;;;;;5086987;28;1176;-84
2022/06/12 17:31:28;;;;;;;;;;;;;;;;;;5087974;28;1151;-86
2022/06/12 17:33:53;;;;;;;;;;;;;;;;;;5075484;28;1335;-83
2022/06/12 17:36:19;;;;;;;;;;;;;;;;;;5066738;28;1193;-83
2022/06/12 17:38:44;;;;;;;;;;;;;;;;;;5069658;28;1166;-82
2022/06/12 17:41:09;;;;;;;;;;;;;;;;;;5072865;28;1452;-87
2022/06/12 17:43:35;;;;;;;;;;;;;;;;;;5070162;28;1903;-86
2022/06/12 17:46:04;;;;;;;;;;;;;;;;;;5072830;28;1249;-83
2022/06/12 17:48:29;;;;;;;;;;;;;;;;;;5087912;28;1245;-85